createdAt,value
2023-01-19T00:02:14.177Z,93.79
2023-01-19T00:05:17.317Z,93.60
2023-01-19T00:08:22.635Z,93.49
2023-01-19T00:11:24.970Z,93.69
2023-01-19T00:14:31.854Z,93.69
2023-01-19T00:17:38.297Z,93.64
2023-01-19T00:20:42.451Z,93.50
2023-01-19T00:23:52.827Z,93.59
2023-01-19T00:27:01.717Z,93.67
2023-01-19T00:30:07.410Z,93.89
2023-01-19T00:33:20.311Z,94.03
2023-01-19T00:36:25.526Z,93.69
2023-01-19T00:39:35.072Z,93.52
2023-01-19T00:42:42.630Z,93.39
2023-01-19T00:45:51.473Z,93.55
2023-01-19T00:48:56.465Z,93.53
2023-01-19T00:51:58.860Z,93.48
2023-01-19T00:55:01.161Z,92.94
2023-01-19T00:58:04.854Z,93.22
2023-01-19T01:01:10.097Z,92.95
2023-01-19T01:04:15.080Z,93.59
2023-01-19T01:07:17.273Z,93.31
2023-01-19T01:10:26.565Z,93.15
2023-01-19T01:13:34.683Z,93.38
2023-01-19T01:16:37.276Z,93.24
2023-01-19T01:19:42.384Z,93.09
2023-01-19T01:22:53.205Z,92.94
2023-01-19T01:25:55.766Z,93.34
2023-01-19T01:28:59.756Z,92.70
2023-01-19T01:32:02.765Z,93.03
2023-01-19T01:35:16.575Z,92.79
2023-01-19T01:38:22.384Z,93.30
2023-01-19T01:41:26.072Z,93.01
2023-01-19T01:44:54.332Z,92.40
2023-01-19T01:48:14.753Z,92.71
2023-01-19T01:51:40.884Z,92.45
2023-01-19T01:54:47.691Z,92.38
2023-01-19T01:57:59.383Z,92.31
2023-01-19T02:01:24.479Z,92.42
2023-01-19T02:04:26.882Z,92.33
2023-01-19T02:08:13.959Z,92.16
2023-01-19T02:11:35.653Z,92.55
2023-01-19T02:14:41.977Z,92.05
2023-01-19T02:17:50.946Z,91.80
2023-01-19T02:21:24.232Z,91.62
2023-01-19T02:24:32.063Z,92.08
2023-01-19T02:27:34.584Z,91.87
2023-01-19T02:30:41.283Z,91.56
2023-01-19T02:33:43.869Z,91.39
2023-01-19T02:36:51.078Z,91.62
2023-01-19T02:39:59.209Z,91.49
2023-01-19T02:43:04.593Z,91.30
2023-01-19T02:46:07.283Z,91.53
2023-01-19T02:49:11.089Z,91.35
2023-01-19T02:52:19.522Z,91.46
2023-01-19T02:55:26.439Z,90.86
2023-01-19T02:59:07.647Z,90.98
2023-01-19T03:02:30.826Z,91.05
2023-01-19T03:05:51.892Z,91.17
2023-01-19T03:09:16.280Z,91.11
2023-01-19T03:12:27.492Z,91.49
2023-01-19T03:15:38.003Z,91.10
2023-01-19T03:18:45.663Z,91.50
2023-01-19T03:21:57.893Z,91.65
2023-01-19T03:25:03.351Z,91.27
2023-01-19T03:28:08.582Z,91.15
2023-01-19T03:31:29.430Z,91.65
2023-01-19T03:34:32.767Z,91.03
2023-01-19T03:37:39.320Z,90.92
2023-01-19T03:40:45.817Z,91.07
2023-01-19T03:43:52.563Z,91.57
2023-01-19T03:46:58.217Z,91.63
2023-01-19T03:50:09.304Z,91.91
2023-01-19T03:53:23.940Z,91.39
2023-01-19T03:56:32.160Z,91.66
2023-01-19T03:59:40.390Z,92.05
2023-01-19T04:02:48.308Z,91.62
2023-01-19T04:05:50.904Z,91.59
2023-01-19T04:08:54.065Z,91.08
2023-01-19T04:12:06.447Z,91.36
2023-01-19T04:15:08.763Z,91.28
2023-01-19T04:18:20.351Z,91.52
2023-01-19T04:21:25.552Z,91.18
2023-01-19T04:24:28.224Z,91.30
2023-01-19T04:27:30.513Z,90.92
2023-01-19T04:30:37.994Z,90.40
2023-01-19T04:33:44.404Z,90.48
2023-01-19T04:36:51.219Z,89.69
2023-01-19T04:39:56.421Z,89.63
2023-01-19T04:42:59.012Z,89.27
2023-01-19T04:46:04.237Z,88.61
2023-01-19T04:49:06.714Z,88.71
2023-01-19T04:52:12.136Z,88.69
2023-01-19T04:55:15.077Z,89.14
2023-01-19T04:58:19.293Z,89.30
2023-01-19T05:01:23.689Z,89.65
2023-01-19T05:04:26.134Z,89.09
2023-01-19T05:07:30.969Z,89.16
2023-01-19T05:10:43.201Z,89.18
2023-01-19T05:13:45.548Z,88.79
2023-01-19T05:16:50.711Z,88.46
2023-01-19T05:20:01.979Z,88.47
2023-01-19T05:23:05.710Z,88.56
2023-01-19T05:26:10.304Z,88.40
2023-01-19T05:29:15.002Z,88.54
2023-01-19T05:32:17.210Z,87.44
2023-01-19T05:35:35.407Z,87.47
2023-01-19T05:38:38.230Z,87.30
2023-01-19T05:41:45.480Z,87.71
2023-01-19T05:44:52.962Z,87.07
2023-01-19T05:47:58.187Z,87.55
2023-01-19T05:51:01.548Z,87.51
2023-01-19T05:54:08.391Z,87.37
2023-01-19T05:57:15.389Z,88.12
2023-01-19T06:00:18.363Z,87.86
2023-01-19T06:03:20.619Z,88.36
2023-01-19T06:06:25.646Z,88.75
2023-01-19T06:09:29.171Z,89.09
2023-01-19T06:12:34.512Z,89.58
2023-01-19T06:15:39.649Z,89.73
2023-01-19T06:18:49.406Z,89.72
2023-01-19T06:21:55.129Z,89.85
2023-01-19T06:25:04.903Z,89.29
2023-01-19T06:28:11.886Z,89.24
2023-01-19T06:31:19.504Z,89.11
2023-01-19T06:34:21.969Z,88.81
2023-01-19T06:37:27.652Z,88.83
2023-01-19T06:40:31.731Z,88.20
2023-01-19T06:43:40.102Z,88.16
2023-01-19T06:46:44.387Z,87.40
2023-01-19T06:49:49.052Z,88.43
2023-01-19T06:52:51.854Z,89.09
2023-01-19T06:55:56.671Z,88.54
2023-01-19T06:59:06.911Z,86.90
2023-01-19T07:02:27.426Z,86.73
2023-01-19T07:05:30.719Z,87.77
2023-01-19T07:08:40.151Z,88.19
2023-01-19T07:11:45.122Z,87.78
2023-01-19T07:14:51.118Z,87.87
2023-01-19T07:18:00.925Z,87.68
2023-01-19T07:21:04.539Z,87.49
2023-01-19T07:24:06.997Z,88.02
2023-01-19T07:27:11.820Z,87.71
2023-01-19T07:30:16.504Z,88.21
2023-01-19T07:33:28.083Z,87.12
2023-01-19T07:36:41.073Z,86.32
2023-01-19T07:39:54.165Z,85.65
2023-01-19T07:43:04.472Z,85.90
2023-01-19T07:46:09.393Z,86.06
2023-01-19T07:49:12.729Z,85.32
2023-01-19T07:52:17.010Z,85.24
2023-01-19T07:55:25.741Z,84.85
2023-01-19T07:58:37.725Z,86.06
2023-01-19T08:01:42.893Z,85.42
2023-01-19T08:04:49.041Z,85.68
2023-01-19T08:07:53.325Z,85.60
2023-01-19T08:10:56.508Z,85.57
2023-01-19T08:13:59.896Z,85.31
2023-01-19T08:17:03.057Z,84.87
2023-01-19T08:20:06.726Z,85.47
2023-01-19T08:23:18.188Z,85.66
2023-01-19T08:26:34.108Z,86.23
2023-01-19T08:29:45.831Z,86.04
2023-01-19T08:32:48.173Z,85.34
2023-01-19T08:35:54.513Z,85.61
2023-01-19T08:38:59.532Z,85.69
2023-01-19T08:42:05.805Z,85.75
2023-01-19T08:45:09.469Z,85.70
2023-01-19T08:48:15.870Z,86.13
2023-01-19T08:51:19.080Z,84.64
2023-01-19T08:54:21.963Z,84.91
2023-01-19T08:57:24.269Z,84.51
2023-01-19T09:00:27.321Z,84.57
2023-01-19T09:03:36.212Z,85.28
2023-01-19T09:06:38.562Z,85.44
2023-01-19T09:09:45.808Z,85.67
2023-01-19T09:12:52.276Z,85.79
2023-01-19T09:16:00.719Z,85.51
2023-01-19T09:19:04.425Z,85.66
2023-01-19T09:22:09.058Z,85.18
2023-01-19T09:25:15.349Z,85.66
2023-01-19T09:28:18.040Z,85.37
2023-01-19T09:31:20.603Z,85.39
2023-01-19T09:34:25.464Z,85.88
2023-01-19T09:37:28.991Z,86.11
2023-01-19T09:40:34.069Z,85.96
2023-01-19T09:44:00.455Z,85.27
2023-01-19T09:47:17.377Z,85.47
2023-01-19T09:50:27.862Z,85.10
2023-01-19T09:53:46.845Z,84.66
2023-01-19T09:56:55.832Z,85.37
2023-01-19T10:00:00.804Z,85.79
2023-01-19T10:03:16.400Z,84.92
2023-01-19T10:06:28.601Z,84.99
2023-01-19T10:09:47.311Z,85.45
2023-01-19T10:13:21.179Z,85.99
2023-01-19T10:16:37.834Z,85.58
2023-01-19T10:19:54.924Z,86.80
2023-01-19T10:23:10.501Z,87.15
2023-01-19T10:26:17.532Z,87.16
2023-01-19T10:29:37.713Z,87.09
2023-01-19T10:32:45.713Z,87.24
2023-01-19T10:35:51.038Z,87.88
2023-01-19T10:38:55.984Z,87.16
2023-01-19T10:42:07.209Z,87.81
2023-01-19T10:45:23.934Z,87.38
2023-01-19T10:48:39.928Z,87.15
2023-01-19T10:51:49.787Z,87.52
2023-01-19T10:55:02.589Z,87.14
2023-01-19T10:58:06.584Z,87.51
2023-01-19T11:01:25.210Z,87.06
2023-01-19T11:04:32.823Z,87.38
2023-01-19T11:07:44.217Z,87.09
2023-01-19T11:11:15.492Z,86.71
2023-01-19T11:14:26.580Z,86.90
2023-01-19T11:17:29.064Z,86.73
2023-01-19T11:21:01.635Z,86.43
2023-01-19T11:24:16.525Z,86.81
2023-01-19T11:27:28.455Z,87.29
2023-01-19T11:30:36.772Z,87.36
2023-01-19T11:33:51.045Z,86.67
2023-01-19T11:37:01.491Z,86.44
2023-01-19T11:40:15.689Z,86.31
2023-01-19T11:43:49.068Z,86.06
2023-01-19T11:47:19.744Z,86.87
2023-01-19T11:50:39.873Z,86.45
2023-01-19T11:53:47.349Z,85.66
2023-01-19T11:56:52.167Z,85.29
2023-01-19T12:00:03.552Z,84.79
2023-01-19T12:03:20.952Z,85.38
2023-01-19T12:06:28.082Z,84.60
2023-01-19T12:09:48.997Z,85.48
2023-01-19T12:12:58.222Z,85.35
2023-01-19T12:16:06.780Z,85.38
2023-01-19T12:19:23.181Z,85.31
2023-01-19T12:22:30.302Z,85.93
2023-01-19T12:26:10.207Z,86.12
2023-01-19T12:29:19.916Z,85.94
2023-01-19T12:32:39.228Z,85.39
2023-01-19T12:36:07.108Z,85.76
2023-01-19T12:39:21.546Z,85.69
2023-01-19T12:42:25.282Z,85.45
2023-01-19T12:45:37.510Z,85.60
2023-01-19T12:48:42.862Z,85.67
2023-01-19T12:51:47.796Z,85.50
2023-01-19T12:55:13.026Z,85.70
2023-01-19T12:58:28.149Z,85.12
2023-01-19T13:01:32.368Z,85.39
2023-01-19T13:04:40.030Z,84.55
2023-01-19T13:08:35.651Z,85.11
2023-01-19T13:12:20.474Z,85.60
2023-01-19T13:15:54.790Z,85.54
2023-01-19T13:19:11.757Z,85.29
2023-01-19T13:22:51.997Z,85.00
2023-01-19T13:26:09.783Z,84.59
2023-01-19T13:29:35.718Z,85.11
2023-01-19T13:32:43.964Z,85.64
2023-01-19T13:35:53.474Z,84.89
2023-01-19T13:39:00.531Z,85.45
2023-01-19T13:42:08.247Z,85.98
2023-01-19T13:45:33.797Z,85.89
2023-01-19T13:48:41.412Z,85.05
2023-01-19T13:51:47.549Z,85.83
2023-01-19T13:55:04.861Z,85.85
2023-01-19T13:58:36.415Z,85.50
2023-01-19T14:01:53.619Z,85.53
2023-01-19T14:04:57.422Z,86.08
2023-01-19T14:08:07.668Z,85.78
2023-01-19T14:11:20.621Z,85.60
2023-01-19T14:14:31.011Z,85.97
2023-01-19T14:17:35.191Z,85.93
2023-01-19T14:20:52.936Z,86.41
2023-01-19T14:24:16.243Z,86.56
2023-01-19T14:27:28.045Z,85.16
2023-01-19T14:30:33.663Z,85.88
2023-01-19T14:33:48.321Z,85.36
2023-01-19T14:36:53.803Z,85.93
2023-01-19T14:40:11.702Z,85.53
2023-01-19T14:43:22.066Z,86.08
2023-01-19T14:46:29.964Z,85.98
2023-01-19T14:49:40.397Z,85.93
2023-01-19T14:52:50.097Z,86.87
2023-01-19T14:56:11.491Z,86.42
2023-01-19T14:59:16.110Z,85.85
2023-01-19T15:02:21.356Z,85.78
2023-01-19T15:05:25.357Z,86.92
2023-01-19T15:08:37.671Z,87.20
2023-01-19T15:11:41.462Z,86.49
2023-01-19T15:14:46.564Z,86.69
2023-01-19T15:17:56.311Z,87.07
2023-01-19T15:21:06.128Z,87.07
2023-01-19T15:24:17.751Z,86.66
2023-01-19T15:27:23.518Z,86.71
2023-01-19T15:30:29.719Z,86.87
2023-01-19T15:33:32.621Z,87.49
2023-01-19T15:36:38.502Z,88.08
2023-01-19T15:39:43.549Z,86.89
2023-01-19T15:42:52.225Z,87.39
2023-01-19T15:46:02.041Z,87.62
2023-01-19T15:49:06.823Z,87.06
2023-01-19T15:52:09.070Z,87.25
2023-01-19T15:55:12.528Z,86.82
2023-01-19T15:58:35.058Z,87.13
2023-01-19T16:01:43.350Z,87.26
2023-01-19T16:04:50.968Z,86.60
2023-01-19T16:07:53.245Z,86.77
2023-01-19T16:11:10.313Z,86.93
2023-01-19T16:14:12.741Z,85.95
2023-01-19T16:17:15.061Z,86.11
2023-01-19T16:20:29.794Z,86.82
2023-01-19T16:23:32.169Z,86.71
2023-01-19T16:26:39.768Z,86.38
2023-01-19T16:29:51.437Z,86.34
2023-01-19T16:32:58.805Z,86.93
2023-01-19T16:36:19.602Z,86.30
2023-01-19T16:39:31.256Z,86.57
2023-01-19T16:42:36.086Z,85.97
2023-01-19T16:46:00.591Z,85.89
2023-01-19T16:49:05.794Z,86.04
2023-01-19T16:52:13.282Z,86.45
2023-01-19T16:55:20.345Z,85.26
2023-01-19T16:58:26.129Z,85.66
2023-01-19T17:01:39.276Z,85.46
2023-01-19T17:04:45.263Z,84.64
2023-01-19T17:07:55.545Z,85.12
2023-01-19T17:11:02.968Z,84.84
2023-01-19T17:14:15.842Z,84.64
2023-01-19T17:17:23.272Z,84.71
2023-01-19T17:20:26.643Z,84.68
2023-01-19T17:23:30.203Z,84.60
2023-01-19T17:26:38.466Z,84.54
2023-01-19T17:29:47.235Z,84.58
2023-01-19T17:32:52.048Z,84.64
2023-01-19T17:36:03.583Z,84.71
2023-01-19T17:39:08.628Z,84.02
2023-01-19T17:42:22.760Z,84.70
2023-01-19T17:45:28.230Z,84.68
2023-01-19T17:48:32.637Z,84.59
2023-01-19T17:51:37.393Z,84.27
2023-01-19T17:54:40.828Z,84.59
2023-01-19T17:58:08.115Z,84.46
2023-01-19T18:01:16.411Z,84.78
2023-01-19T18:04:24.959Z,84.86
2023-01-19T18:07:29.012Z,84.60
2023-01-19T18:10:31.478Z,84.52
2023-01-19T18:13:36.546Z,84.65
2023-01-19T18:16:38.771Z,85.03
2023-01-19T18:19:43.907Z,85.40
2023-01-19T18:22:46.148Z,85.03
2023-01-19T18:25:49.973Z,85.06
2023-01-19T18:29:00.350Z,85.27
2023-01-19T18:32:07.045Z,84.84
2023-01-19T18:35:09.576Z,85.51
2023-01-19T18:38:14.610Z,85.42
2023-01-19T18:41:23.513Z,85.06
2023-01-19T18:44:28.875Z,85.74
2023-01-19T18:47:36.118Z,85.54
2023-01-19T18:50:38.444Z,85.01
2023-01-19T18:53:45.265Z,85.15
2023-01-19T18:56:53.114Z,85.03
2023-01-19T18:59:58.354Z,84.81
2023-01-19T19:03:10.840Z,85.11
2023-01-19T19:06:20.807Z,85.45
2023-01-19T19:09:28.787Z,85.64
2023-01-19T19:12:36.645Z,85.41
2023-01-19T19:15:41.589Z,85.65
2023-01-19T19:18:51.749Z,85.45
2023-01-19T19:21:54.082Z,85.43
2023-01-19T19:25:03.680Z,85.58
2023-01-19T19:28:11.227Z,85.81
2023-01-19T19:31:22.425Z,86.00
2023-01-19T19:34:27.997Z,85.56
2023-01-19T19:37:38.622Z,84.82
2023-01-19T19:40:41.983Z,85.73
2023-01-19T19:43:45.663Z,85.13
2023-01-19T19:46:52.743Z,86.57
2023-01-19T19:49:59.222Z,86.38
2023-01-19T19:53:08.635Z,86.28
2023-01-19T19:56:15.388Z,85.90
2023-01-19T19:59:20.022Z,85.82
2023-01-19T20:02:24.119Z,86.12
2023-01-19T20:05:33.577Z,85.93
2023-01-19T20:08:44.607Z,85.50
2023-01-19T20:11:50.218Z,85.57
2023-01-19T20:14:52.587Z,85.30
2023-01-19T20:18:01.724Z,85.74
2023-01-19T20:21:38.093Z,85.58
2023-01-19T20:24:43.409Z,84.94
2023-01-19T20:27:45.744Z,85.33
2023-01-19T20:30:51.483Z,85.63
2023-01-19T20:33:59.975Z,85.55
2023-01-19T20:37:04.729Z,85.71
2023-01-19T20:40:07.104Z,85.54
2023-01-19T20:43:09.385Z,85.34
2023-01-19T20:46:14.735Z,85.55
2023-01-19T20:49:23.167Z,85.06
2023-01-19T20:52:25.451Z,85.66
2023-01-19T20:55:27.978Z,85.50
2023-01-19T20:58:37.395Z,85.50
2023-01-19T21:01:44.108Z,85.39
2023-01-19T21:04:48.842Z,85.20
2023-01-19T21:07:51.088Z,85.04
2023-01-19T21:10:59.367Z,85.35
2023-01-19T21:14:02.015Z,84.13
2023-01-19T21:17:07.404Z,84.51
2023-01-19T21:20:13.407Z,84.68
2023-01-19T21:23:16.037Z,83.90
2023-01-19T21:26:22.007Z,82.98
2023-01-19T21:29:25.441Z,83.24
2023-01-19T21:32:30.595Z,83.46
2023-01-19T21:35:32.820Z,82.85
2023-01-19T21:38:38.831Z,83.08
2023-01-19T21:41:43.296Z,83.74
2023-01-19T21:44:48.279Z,83.14
2023-01-19T21:47:50.602Z,83.41
2023-01-19T21:50:59.394Z,84.19
2023-01-19T21:54:03.364Z,83.96
2023-01-19T21:57:08.726Z,83.78
2023-01-19T22:00:13.236Z,82.95
2023-01-19T22:03:16.691Z,83.22
2023-01-19T22:06:18.943Z,83.96
2023-01-19T22:09:22.349Z,83.95
2023-01-19T22:12:25.711Z,84.59
2023-01-19T22:15:31.381Z,84.49
2023-01-19T22:18:38.059Z,85.15
2023-01-19T22:21:42.912Z,85.26
2023-01-19T22:24:52.604Z,84.72
2023-01-19T22:27:55.763Z,85.15
2023-01-19T22:31:12.132Z,85.15
2023-01-19T22:34:20.369Z,85.25
2023-01-19T22:37:22.688Z,85.15
2023-01-19T22:40:24.908Z,85.50
2023-01-19T22:43:31.722Z,85.63
2023-01-19T22:46:38.468Z,85.41
2023-01-19T22:49:42.896Z,85.43
2023-01-19T22:52:55.468Z,85.75
2023-01-19T22:55:57.712Z,85.35
2023-01-19T22:59:05.234Z,85.28
2023-01-19T23:02:14.967Z,85.13
2023-01-19T23:05:19.541Z,85.32
2023-01-19T23:08:22.689Z,85.31
2023-01-19T23:11:27.166Z,85.87
2023-01-19T23:14:39.349Z,85.50
2023-01-19T23:17:45.379Z,85.17
2023-01-19T23:20:47.595Z,85.08
2023-01-19T23:23:57.776Z,85.64
2023-01-19T23:27:02.305Z,85.15
2023-01-19T23:30:12.831Z,85.34
2023-01-19T23:33:17.433Z,85.25
2023-01-19T23:36:21.527Z,85.35
2023-01-19T23:39:26.050Z,85.08
2023-01-19T23:42:28.295Z,85.10
2023-01-19T23:45:31.438Z,85.39
2023-01-19T23:48:34.633Z,85.68
2023-01-19T23:51:38.075Z,86.25
2023-01-19T23:54:43.733Z,86.23
2023-01-19T23:57:50.491Z,86.37
